sensor_id;sensor_type;location;lat;lon;timestamp;P1;durP1;ratioP1;P2;durP2;ratioP2
5961;SDS011;3007;50.770;0.250;2024-03-08T00:02:22;47.67;;;32.83;;
5961;SDS011;3007;50.770;0.250;2024-03-08T00:04:51;58.07;;;36.43;;
5961;SDS011;3007;50.770;0.250;2024-03-08T00:07:17;52.40;;;36.13;;
5961;SDS011;3007;50.770;0.250;2024-03-08T00:09:44;53.70;;;36.80;;
5961;SDS011;3007;50.770;0.250;2024-03-08T00:12:11;52.33;;;36.87;;
5961;SDS011;3007;50.770;0.250;2024-03-08T00:14:38;56.40;;;37.37;;
5961;SDS011;3007;50.770;0.250;2024-03-08T00:17:05;55.20;;;37.27;;
5961;SDS011;3007;50.770;0.250;2024-03-08T00:19:33;55.90;;;39.23;;
5961;SDS011;3007;50.770;0.250;2024-03-08T00:22:01;58.50;;;38.53;;
5961;SDS011;3007;50.770;0.250;2024-03-08T00:24:28;57.70;;;38.80;;
5961;SDS011;3007;50.770;0.250;2024-03-08T00:26:55;53.90;;;37.80;;
5961;SDS011;3007;50.770;0.250;2024-03-08T00:29:23;52.23;;;35.93;;
5961;SDS011;3007;50.770;0.250;2024-03-08T00:31:50;58.20;;;38.37;;
5961;SDS011;3007;50.770;0.250;2024-03-08T00:34:17;59.77;;;37.83;;
5961;SDS011;3007;50.770;0.250;2024-03-08T00:36:44;56.70;;;40.83;;
5961;SDS011;3007;50.770;0.250;2024-03-08T00:39:12;57.83;;;40.60;;
5961;SDS011;3007;50.770;0.250;2024-03-08T00:41:39;59.73;;;39.57;;
5961;SDS011;3007;50.770;0.250;2024-03-08T00:44:05;60.43;;;40.00;;
5961;SDS011;3007;50.770;0.250;2024-03-08T00:46:32;62.20;;;38.53;;
5961;SDS011;3007;50.770;0.250;2024-03-08T00:48:59;60.03;;;40.70;;
5961;SDS011;3007;50.770;0.250;2024-03-08T00:51:27;64.03;;;39.63;;
5961;SDS011;3007;50.770;0.250;2024-03-08T00:53:54;61.27;;;40.60;;
5961;SDS011;3007;50.770;0.250;2024-03-08T00:56:22;57.43;;;39.87;;
5961;SDS011;3007;50.770;0.250;2024-03-08T00:58:49;53.70;;;36.73;;
5961;SDS011;3007;50.770;0.250;2024-03-08T01:01:18;59.70;;;39.83;;
5961;SDS011;3007;50.770;0.250;2024-03-08T01:03:45;58.30;;;38.23;;
5961;SDS011;3007;50.770;0.250;2024-03-08T01:06:12;53.40;;;35.63;;
5961;SDS011;3007;50.770;0.250;2024-03-08T01:08:38;51.87;;;35.37;;
5961;SDS011;3007;50.770;0.250;2024-03-08T01:11:07;57.00;;;37.30;;
5961;SDS011;3007;50.770;0.250;2024-03-08T01:13:35;49.73;;;35.73;;
5961;SDS011;3007;50.770;0.250;2024-03-08T01:16:02;53.30;;;34.87;;
5961;SDS011;3007;50.770;0.250;2024-03-08T01:18:29;55.07;;;34.43;;
5961;SDS011;3007;50.770;0.250;2024-03-08T01:20:57;47.80;;;31.90;;
5961;SDS011;3007;50.770;0.250;2024-03-08T01:23:23;47.47;;;32.93;;
5961;SDS011;3007;50.770;0.250;2024-03-08T01:25:50;46.07;;;31.23;;
5961;SDS011;3007;50.770;0.250;2024-03-08T01:28:21;41.80;;;29.93;;
5961;SDS011;3007;50.770;0.250;2024-03-08T01:30:50;39.53;;;29.13;;
5961;SDS011;3007;50.770;0.250;2024-03-08T01:33:20;43.33;;;27.80;;
5961;SDS011;3007;50.770;0.250;2024-03-08T01:35:47;39.53;;;27.57;;
5961;SDS011;3007;50.770;0.250;2024-03-08T01:38:14;41.23;;;27.57;;
5961;SDS011;3007;50.770;0.250;2024-03-08T01:40:41;40.37;;;26.80;;
5961;SDS011;3007;50.770;0.250;2024-03-08T01:43:18;37.80;;;27.43;;
5961;SDS011;3007;50.770;0.250;2024-03-08T01:45:46;42.23;;;26.97;;
5961;SDS011;3007;50.770;0.250;2024-03-08T01:48:15;33.93;;;26.57;;
5961;SDS011;3007;50.770;0.250;2024-03-08T01:50:44;40.90;;;27.50;;
5961;SDS011;3007;50.770;0.250;2024-03-08T01:53:11;40.53;;;27.07;;
5961;SDS011;3007;50.770;0.250;2024-03-08T01:55:40;39.07;;;25.70;;
5961;SDS011;3007;50.770;0.250;2024-03-08T01:58:08;37.17;;;25.87;;
5961;SDS011;3007;50.770;0.250;2024-03-08T02:00:36;35.23;;;25.77;;
5961;SDS011;3007;50.770;0.250;2024-03-08T02:03:06;40.47;;;28.70;;
5961;SDS011;3007;50.770;0.250;2024-03-08T02:05:34;39.37;;;26.57;;
5961;SDS011;3007;50.770;0.250;2024-03-08T02:08:03;42.73;;;28.50;;
5961;SDS011;3007;50.770;0.250;2024-03-08T02:10:32;37.30;;;26.40;;
5961;SDS011;3007;50.770;0.250;2024-03-08T02:12:59;37.37;;;27.43;;
5961;SDS011;3007;50.770;0.250;2024-03-08T02:15:30;38.30;;;26.87;;
5961;SDS011;3007;50.770;0.250;2024-03-08T02:18:19;36.83;;;26.23;;
5961;SDS011;3007;50.770;0.250;2024-03-08T02:20:47;37.13;;;25.07;;
5961;SDS011;3007;50.770;0.250;2024-03-08T02:23:14;37.33;;;26.30;;
5961;SDS011;3007;50.770;0.250;2024-03-08T02:25:41;38.20;;;25.20;;
5961;SDS011;3007;50.770;0.250;2024-03-08T02:28:08;33.17;;;26.10;;
5961;SDS011;3007;50.770;0.250;2024-03-08T02:30:38;37.00;;;25.73;;
5961;SDS011;3007;50.770;0.250;2024-03-08T02:33:05;34.13;;;24.13;;
5961;SDS011;3007;50.770;0.250;2024-03-08T02:35:34;37.57;;;24.97;;
5961;SDS011;3007;50.770;0.250;2024-03-08T02:38:02;35.40;;;24.67;;
5961;SDS011;3007;50.770;0.250;2024-03-08T02:40:30;34.80;;;25.07;;
5961;SDS011;3007;50.770;0.250;2024-03-08T02:42:57;35.93;;;25.03;;
5961;SDS011;3007;50.770;0.250;2024-03-08T02:45:24;35.53;;;25.07;;
5961;SDS011;3007;50.770;0.250;2024-03-08T02:47:51;37.30;;;25.03;;
5961;SDS011;3007;50.770;0.250;2024-03-08T02:50:18;38.53;;;26.17;;
5961;SDS011;3007;50.770;0.250;2024-03-08T02:52:44;34.80;;;24.40;;
5961;SDS011;3007;50.770;0.250;2024-03-08T02:55:13;33.90;;;25.87;;
5961;SDS011;3007;50.770;0.250;2024-03-08T02:57:41;37.13;;;25.40;;
5961;SDS011;3007;50.770;0.250;2024-03-08T03:00:09;35.47;;;25.47;;
5961;SDS011;3007;50.770;0.250;2024-03-08T03:02:38;35.33;;;24.87;;
5961;SDS011;3007;50.770;0.250;2024-03-08T03:05:05;33.83;;;25.33;;
5961;SDS011;3007;50.770;0.250;2024-03-08T03:07:34;36.40;;;27.07;;
5961;SDS011;3007;50.770;0.250;2024-03-08T03:10:02;41.23;;;26.77;;
5961;SDS011;3007;50.770;0.250;2024-03-08T03:12:31;35.57;;;26.00;;
5961;SDS011;3007;50.770;0.250;2024-03-08T03:14:58;39.87;;;27.30;;
5961;SDS011;3007;50.770;0.250;2024-03-08T03:17:25;33.50;;;24.97;;
5961;SDS011;3007;50.770;0.250;2024-03-08T03:19:52;42.83;;;27.20;;
5961;SDS011;3007;50.770;0.250;2024-03-08T03:22:20;39.63;;;28.00;;
5961;SDS011;3007;50.770;0.250;2024-03-08T03:24:48;42.03;;;27.37;;
5961;SDS011;3007;50.770;0.250;2024-03-08T03:27:16;42.07;;;26.53;;
5961;SDS011;3007;50.770;0.250;2024-03-08T03:29:46;38.60;;;27.33;;
5961;SDS011;3007;50.770;0.250;2024-03-08T03:32:14;34.90;;;24.93;;
5961;SDS011;3007;50.770;0.250;2024-03-08T03:34:43;34.33;;;24.47;;
5961;SDS011;3007;50.770;0.250;2024-03-08T03:37:10;33.63;;;25.20;;
5961;SDS011;3007;50.770;0.250;2024-03-08T03:39:38;36.03;;;24.00;;
5961;SDS011;3007;50.770;0.250;2024-03-08T03:42:13;35.17;;;24.53;;
5961;SDS011;3007;50.770;0.250;2024-03-08T03:44:41;31.83;;;23.60;;
5961;SDS011;3007;50.770;0.250;2024-03-08T03:47:10;35.40;;;25.00;;
5961;SDS011;3007;50.770;0.250;2024-03-08T03:49:36;40.27;;;25.33;;
5961;SDS011;3007;50.770;0.250;2024-03-08T03:52:04;38.57;;;25.93;;
5961;SDS011;3007;50.770;0.250;2024-03-08T03:54:31;33.30;;;24.67;;
5961;SDS011;3007;50.770;0.250;2024-03-08T03:56:58;46.03;;;25.83;;
5961;SDS011;3007;50.770;0.250;2024-03-08T03:59:25;35.63;;;23.70;;
5961;SDS011;3007;50.770;0.250;2024-03-08T04:01:52;43.70;;;26.57;;
5961;SDS011;3007;50.770;0.250;2024-03-08T04:04:20;35.33;;;25.57;;
5961;SDS011;3007;50.770;0.250;2024-03-08T04:06:49;37.47;;;25.73;;
5961;SDS011;3007;50.770;0.250;2024-03-08T04:09:16;39.63;;;25.93;;
5961;SDS011;3007;50.770;0.250;2024-03-08T04:11:44;41.13;;;26.60;;
5961;SDS011;3007;50.770;0.250;2024-03-08T04:14:11;41.87;;;26.90;;
5961;SDS011;3007;50.770;0.250;2024-03-08T04:16:37;41.83;;;26.70;;
5961;SDS011;3007;50.770;0.250;2024-03-08T04:19:04;42.60;;;26.93;;
5961;SDS011;3007;50.770;0.250;2024-03-08T04:21:32;43.40;;;28.73;;
5961;SDS011;3007;50.770;0.250;2024-03-08T04:23:59;43.50;;;27.97;;
5961;SDS011;3007;50.770;0.250;2024-03-08T04:26:26;47.23;;;28.43;;
5961;SDS011;3007;50.770;0.250;2024-03-08T04:28:52;38.77;;;26.67;;
5961;SDS011;3007;50.770;0.250;2024-03-08T04:31:19;38.60;;;26.27;;
5961;SDS011;3007;50.770;0.250;2024-03-08T04:33:46;40.00;;;27.13;;
5961;SDS011;3007;50.770;0.250;2024-03-08T04:36:13;36.13;;;26.70;;
5961;SDS011;3007;50.770;0.250;2024-03-08T04:38:41;39.57;;;26.73;;
5961;SDS011;3007;50.770;0.250;2024-03-08T04:41:08;38.07;;;26.87;;
5961;SDS011;3007;50.770;0.250;2024-03-08T04:43:35;41.33;;;27.20;;
5961;SDS011;3007;50.770;0.250;2024-03-08T04:46:02;44.97;;;26.63;;
5961;SDS011;3007;50.770;0.250;2024-03-08T04:48:30;38.87;;;25.33;;
5961;SDS011;3007;50.770;0.250;2024-03-08T04:50:57;40.13;;;27.27;;
5961;SDS011;3007;50.770;0.250;2024-03-08T04:53:25;41.83;;;27.23;;
5961;SDS011;3007;50.770;0.250;2024-03-08T04:55:53;40.33;;;27.57;;
5961;SDS011;3007;50.770;0.250;2024-03-08T04:58:20;41.60;;;26.37;;
5961;SDS011;3007;50.770;0.250;2024-03-08T05:00:47;42.43;;;27.57;;
5961;SDS011;3007;50.770;0.250;2024-03-08T05:03:13;44.47;;;27.03;;
5961;SDS011;3007;50.770;0.250;2024-03-08T05:05:40;39.03;;;26.40;;
5961;SDS011;3007;50.770;0.250;2024-03-08T05:08:07;38.50;;;27.23;;
5961;SDS011;3007;50.770;0.250;2024-03-08T05:10:34;40.50;;;29.07;;
5961;SDS011;3007;50.770;0.250;2024-03-08T05:13:02;34.67;;;25.93;;
5961;SDS011;3007;50.770;0.250;2024-03-08T05:15:29;42.67;;;28.00;;
5961;SDS011;3007;50.770;0.250;2024-03-08T05:18:00;42.47;;;28.47;;
5961;SDS011;3007;50.770;0.250;2024-03-08T05:20:26;40.33;;;26.97;;
5961;SDS011;3007;50.770;0.250;2024-03-08T05:22:53;39.80;;;26.73;;
5961;SDS011;3007;50.770;0.250;2024-03-08T05:25:20;39.20;;;26.20;;
5961;SDS011;3007;50.770;0.250;2024-03-08T05:27:47;38.87;;;25.20;;
5961;SDS011;3007;50.770;0.250;2024-03-08T05:30:15;37.13;;;25.00;;
5961;SDS011;3007;50.770;0.250;2024-03-08T05:32:42;40.73;;;26.67;;
5961;SDS011;3007;50.770;0.250;2024-03-08T05:35:10;39.10;;;26.33;;
5961;SDS011;3007;50.770;0.250;2024-03-08T05:37:37;38.50;;;25.97;;
5961;SDS011;3007;50.770;0.250;2024-03-08T05:40:05;39.83;;;28.30;;
5961;SDS011;3007;50.770;0.250;2024-03-08T05:42:34;39.83;;;26.70;;
5961;SDS011;3007;50.770;0.250;2024-03-08T05:45:02;38.23;;;26.67;;
5961;SDS011;3007;50.770;0.250;2024-03-08T05:47:30;40.07;;;27.70;;
5961;SDS011;3007;50.770;0.250;2024-03-08T05:49:57;43.47;;;27.80;;
5961;SDS011;3007;50.770;0.250;2024-03-08T05:52:24;36.03;;;25.47;;
5961;SDS011;3007;50.770;0.250;2024-03-08T05:54:52;35.10;;;25.43;;
5961;SDS011;3007;50.770;0.250;2024-03-08T05:57:18;38.50;;;26.43;;
5961;SDS011;3007;50.770;0.250;2024-03-08T05:59:47;40.50;;;26.43;;
5961;SDS011;3007;50.770;0.250;2024-03-08T06:02:14;40.93;;;27.40;;
5961;SDS011;3007;50.770;0.250;2024-03-08T06:04:45;41.33;;;26.73;;
5961;SDS011;3007;50.770;0.250;2024-03-08T06:07:13;44.43;;;27.53;;
5961;SDS011;3007;50.770;0.250;2024-03-08T06:09:39;40.67;;;26.83;;
5961;SDS011;3007;50.770;0.250;2024-03-08T06:12:10;40.83;;;26.13;;
5961;SDS011;3007;50.770;0.250;2024-03-08T06:14:37;46.83;;;27.30;;
5961;SDS011;3007;50.770;0.250;2024-03-08T06:17:04;42.13;;;27.30;;
5961;SDS011;3007;50.770;0.250;2024-03-08T06:19:32;41.20;;;28.23;;
5961;SDS011;3007;50.770;0.250;2024-03-08T06:22:00;42.30;;;25.33;;
5961;SDS011;3007;50.770;0.250;2024-03-08T06:24:30;41.47;;;27.27;;
5961;SDS011;3007;50.770;0.250;2024-03-08T06:26:57;43.10;;;27.20;;
5961;SDS011;3007;50.770;0.250;2024-03-08T06:29:24;44.00;;;27.50;;
5961;SDS011;3007;50.770;0.250;2024-03-08T06:31:51;41.80;;;26.93;;
5961;SDS011;3007;50.770;0.250;2024-03-08T06:34:18;42.90;;;27.07;;
5961;SDS011;3007;50.770;0.250;2024-03-08T06:36:45;42.23;;;25.73;;
5961;SDS011;3007;50.770;0.250;2024-03-08T06:39:13;47.87;;;29.30;;
5961;SDS011;3007;50.770;0.250;2024-03-08T06:41:40;48.33;;;28.07;;
5961;SDS011;3007;50.770;0.250;2024-03-08T06:44:09;42.50;;;27.83;;
5961;SDS011;3007;50.770;0.250;2024-03-08T06:46:36;40.87;;;27.80;;
5961;SDS011;3007;50.770;0.250;2024-03-08T06:49:03;41.27;;;26.70;;
5961;SDS011;3007;50.770;0.250;2024-03-08T06:51:30;40.30;;;25.97;;
5961;SDS011;3007;50.770;0.250;2024-03-08T06:53:57;41.83;;;28.33;;
5961;SDS011;3007;50.770;0.250;2024-03-08T06:56:25;42.37;;;26.10;;
5961;SDS011;3007;50.770;0.250;2024-03-08T06:58:52;44.17;;;25.63;;
5961;SDS011;3007;50.770;0.250;2024-03-08T07:01:19;40.20;;;26.83;;
5961;SDS011;3007;50.770;0.250;2024-03-08T07:03:46;41.37;;;26.53;;
5961;SDS011;3007;50.770;0.250;2024-03-08T07:06:13;44.93;;;26.97;;
5961;SDS011;3007;50.770;0.250;2024-03-08T07:08:40;36.90;;;26.63;;
5961;SDS011;3007;50.770;0.250;2024-03-08T07:11:10;42.90;;;26.43;;
5961;SDS011;3007;50.770;0.250;2024-03-08T07:13:41;44.83;;;27.00;;
5961;SDS011;3007;50.770;0.250;2024-03-08T07:16:08;42.97;;;28.50;;
5961;SDS011;3007;50.770;0.250;2024-03-08T07:18:37;44.23;;;25.43;;
5961;SDS011;3007;50.770;0.250;2024-03-08T07:21:05;40.47;;;26.23;;
5961;SDS011;3007;50.770;0.250;2024-03-08T07:23:31;38.80;;;26.37;;
5961;SDS011;3007;50.770;0.250;2024-03-08T07:26:27;43.30;;;26.23;;
5961;SDS011;3007;50.770;0.250;2024-03-08T07:28:56;40.63;;;26.40;;
5961;SDS011;3007;50.770;0.250;2024-03-08T07:31:24;35.23;;;25.17;;
5961;SDS011;3007;50.770;0.250;2024-03-08T07:33:59;38.57;;;26.47;;
5961;SDS011;3007;50.770;0.250;2024-03-08T07:36:28;39.27;;;25.53;;
5961;SDS011;3007;50.770;0.250;2024-03-08T07:38:55;40.90;;;26.43;;
5961;SDS011;3007;50.770;0.250;2024-03-08T07:41:22;41.00;;;25.33;;
5961;SDS011;3007;50.770;0.250;2024-03-08T07:43:50;43.67;;;25.23;;
5961;SDS011;3007;50.770;0.250;2024-03-08T07:46:18;38.17;;;25.60;;
5961;SDS011;3007;50.770;0.250;2024-03-08T07:48:45;39.83;;;25.37;;
5961;SDS011;3007;50.770;0.250;2024-03-08T07:51:15;39.27;;;24.53;;
5961;SDS011;3007;50.770;0.250;2024-03-08T07:53:42;36.90;;;24.43;;
5961;SDS011;3007;50.770;0.250;2024-03-08T07:56:10;38.37;;;23.77;;
5961;SDS011;3007;50.770;0.250;2024-03-08T07:58:38;37.17;;;23.73;;
5961;SDS011;3007;50.770;0.250;2024-03-08T08:01:06;33.77;;;24.20;;
5961;SDS011;3007;50.770;0.250;2024-03-08T08:03:35;37.00;;;26.40;;
5961;SDS011;3007;50.770;0.250;2024-03-08T08:06:03;42.97;;;25.47;;
5961;SDS011;3007;50.770;0.250;2024-03-08T08:08:30;37.63;;;24.87;;
5961;SDS011;3007;50.770;0.250;2024-03-08T08:10:57;40.87;;;23.87;;
5961;SDS011;3007;50.770;0.250;2024-03-08T08:13:24;38.40;;;25.63;;
5961;SDS011;3007;50.770;0.250;2024-03-08T08:15:53;35.43;;;24.50;;
5961;SDS011;3007;50.770;0.250;2024-03-08T08:18:19;36.40;;;24.53;;
5961;SDS011;3007;50.770;0.250;2024-03-08T08:20:51;32.07;;;23.43;;
5961;SDS011;3007;50.770;0.250;2024-03-08T08:23:18;39.93;;;25.10;;
5961;SDS011;3007;50.770;0.250;2024-03-08T08:25:45;36.97;;;25.17;;
5961;SDS011;3007;50.770;0.250;2024-03-08T08:28:15;34.33;;;23.97;;
5961;SDS011;3007;50.770;0.250;2024-03-08T08:30:42;35.83;;;24.80;;
5961;SDS011;3007;50.770;0.250;2024-03-08T08:33:09;34.97;;;23.40;;
5961;SDS011;3007;50.770;0.250;2024-03-08T08:35:36;35.40;;;24.10;;
5961;SDS011;3007;50.770;0.250;2024-03-08T08:38:05;37.63;;;25.47;;
5961;SDS011;3007;50.770;0.250;2024-03-08T08:40:32;38.13;;;25.33;;
5961;SDS011;3007;50.770;0.250;2024-03-08T08:43:01;35.50;;;23.53;;
5961;SDS011;3007;50.770;0.250;2024-03-08T08:45:29;34.93;;;24.90;;
5961;SDS011;3007;50.770;0.250;2024-03-08T08:47:56;36.67;;;24.33;;
5961;SDS011;3007;50.770;0.250;2024-03-08T08:50:24;37.67;;;24.43;;
5961;SDS011;3007;50.770;0.250;2024-03-08T08:52:53;36.07;;;24.93;;
5961;SDS011;3007;50.770;0.250;2024-03-08T08:55:21;47.70;;;25.33;;
5961;SDS011;3007;50.770;0.250;2024-03-08T08:57:50;35.97;;;24.30;;
5961;SDS011;3007;50.770;0.250;2024-03-08T09:00:18;36.27;;;24.23;;
5961;SDS011;3007;50.770;0.250;2024-03-08T09:02:45;31.87;;;23.73;;
5961;SDS011;3007;50.770;0.250;2024-03-08T09:05:13;35.27;;;25.17;;
5961;SDS011;3007;50.770;0.250;2024-03-08T09:07:41;38.43;;;24.80;;
5961;SDS011;3007;50.770;0.250;2024-03-08T09:10:10;34.37;;;23.27;;
5961;SDS011;3007;50.770;0.250;2024-03-08T09:12:40;36.03;;;22.67;;
5961;SDS011;3007;50.770;0.250;2024-03-08T09:15:07;30.73;;;22.30;;
5961;SDS011;3007;50.770;0.250;2024-03-08T09:17:36;38.93;;;23.23;;
5961;SDS011;3007;50.770;0.250;2024-03-08T09:20:06;34.20;;;23.23;;
5961;SDS011;3007;50.770;0.250;2024-03-08T09:22:34;34.03;;;24.53;;
5961;SDS011;3007;50.770;0.250;2024-03-08T09:25:00;35.33;;;24.67;;
5961;SDS011;3007;50.770;0.250;2024-03-08T09:27:28;34.53;;;23.70;;
5961;SDS011;3007;50.770;0.250;2024-03-08T09:29:56;33.13;;;23.30;;
5961;SDS011;3007;50.770;0.250;2024-03-08T09:32:23;39.33;;;24.20;;
5961;SDS011;3007;50.770;0.250;2024-03-08T09:34:49;35.27;;;24.13;;
5961;SDS011;3007;50.770;0.250;2024-03-08T09:37:16;35.03;;;24.27;;
5961;SDS011;3007;50.770;0.250;2024-03-08T09:39:43;36.37;;;25.33;;
5961;SDS011;3007;50.770;0.250;2024-03-08T09:42:13;35.33;;;23.20;;
5961;SDS011;3007;50.770;0.250;2024-03-08T09:44:44;37.00;;;23.53;;
5961;SDS011;3007;50.770;0.250;2024-03-08T09:47:14;36.90;;;23.87;;
5961;SDS011;3007;50.770;0.250;2024-03-08T09:49:41;32.67;;;24.23;;
5961;SDS011;3007;50.770;0.250;2024-03-08T09:52:08;34.50;;;23.20;;
5961;SDS011;3007;50.770;0.250;2024-03-08T09:54:35;37.10;;;24.03;;
5961;SDS011;3007;50.770;0.250;2024-03-08T09:57:03;38.63;;;23.07;;
5961;SDS011;3007;50.770;0.250;2024-03-08T09:59:30;39.40;;;23.13;;
5961;SDS011;3007;50.770;0.250;2024-03-08T10:02:15;33.73;;;22.60;;
5961;SDS011;3007;50.770;0.250;2024-03-08T10:04:43;36.20;;;23.60;;
5961;SDS011;3007;50.770;0.250;2024-03-08T10:07:12;37.77;;;23.63;;
5961;SDS011;3007;50.770;0.250;2024-03-08T10:09:39;31.60;;;22.73;;
5961;SDS011;3007;50.770;0.250;2024-03-08T10:12:07;30.53;;;23.53;;
5961;SDS011;3007;50.770;0.250;2024-03-08T10:14:34;41.87;;;23.87;;
5961;SDS011;3007;50.770;0.250;2024-03-08T10:17:05;36.37;;;24.57;;
5961;SDS011;3007;50.770;0.250;2024-03-08T10:19:34;32.30;;;22.97;;
5961;SDS011;3007;50.770;0.250;2024-03-08T10:22:01;34.70;;;23.73;;
5961;SDS011;3007;50.770;0.250;2024-03-08T10:24:29;35.57;;;24.37;;
5961;SDS011;3007;50.770;0.250;2024-03-08T10:26:59;32.83;;;24.10;;
5961;SDS011;3007;50.770;0.250;2024-03-08T10:29:29;36.77;;;24.27;;
5961;SDS011;3007;50.770;0.250;2024-03-08T10:31:56;34.37;;;23.37;;
5961;SDS011;3007;50.770;0.250;2024-03-08T10:34:23;32.20;;;23.33;;
5961;SDS011;3007;50.770;0.250;2024-03-08T10:36:52;38.60;;;27.10;;
5961;SDS011;3007;50.770;0.250;2024-03-08T10:39:23;37.57;;;24.70;;
5961;SDS011;3007;50.770;0.250;2024-03-08T10:41:52;34.00;;;24.77;;
5961;SDS011;3007;50.770;0.250;2024-03-08T10:44:34;37.47;;;24.13;;
5961;SDS011;3007;50.770;0.250;2024-03-08T10:47:11;41.20;;;25.60;;
5961;SDS011;3007;50.770;0.250;2024-03-08T10:49:47;32.40;;;24.73;;
5961;SDS011;3007;50.770;0.250;2024-03-08T10:52:20;40.33;;;25.20;;
5961;SDS011;3007;50.770;0.250;2024-03-08T10:54:49;38.07;;;26.23;;
5961;SDS011;3007;50.770;0.250;2024-03-08T10:57:19;35.10;;;25.33;;
5961;SDS011;3007;50.770;0.250;2024-03-08T10:59:47;35.50;;;26.03;;
5961;SDS011;3007;50.770;0.250;2024-03-08T11:02:14;33.63;;;24.70;;
5961;SDS011;3007;50.770;0.250;2024-03-08T11:04:47;33.73;;;25.73;;
5961;SDS011;3007;50.770;0.250;2024-03-08T11:07:14;35.63;;;24.73;;
5961;SDS011;3007;50.770;0.250;2024-03-08T11:09:46;32.53;;;24.73;;
5961;SDS011;3007;50.770;0.250;2024-03-08T11:12:21;38.93;;;25.93;;
5961;SDS011;3007;50.770;0.250;2024-03-08T11:14:55;40.27;;;28.33;;
5961;SDS011;3007;50.770;0.250;2024-03-08T11:17:26;34.40;;;28.90;;
5961;SDS011;3007;50.770;0.250;2024-03-08T11:20:08;36.83;;;26.80;;
5961;SDS011;3007;50.770;0.250;2024-03-08T11:22:40;35.97;;;25.23;;
5961;SDS011;3007;50.770;0.250;2024-03-08T11:25:30;38.03;;;25.23;;
5961;SDS011;3007;50.770;0.250;2024-03-08T11:30:44;40.57;;;25.83;;
5961;SDS011;3007;50.770;0.250;2024-03-08T11:33:13;67.13;;;27.37;;
5961;SDS011;3007;50.770;0.250;2024-03-08T11:35:41;34.07;;;25.33;;
5961;SDS011;3007;50.770;0.250;2024-03-08T11:38:11;37.87;;;25.47;;
5961;SDS011;3007;50.770;0.250;2024-03-08T11:40:40;37.70;;;27.17;;
5961;SDS011;3007;50.770;0.250;2024-03-08T11:43:08;38.23;;;26.47;;
5961;SDS011;3007;50.770;0.250;2024-03-08T11:45:35;34.83;;;25.60;;
5961;SDS011;3007;50.770;0.250;2024-03-08T11:48:03;36.37;;;26.90;;
5961;SDS011;3007;50.770;0.250;2024-03-08T11:50:30;35.57;;;26.83;;
5961;SDS011;3007;50.770;0.250;2024-03-08T11:53:02;37.27;;;27.07;;
5961;SDS011;3007;50.770;0.250;2024-03-08T11:55:29;37.90;;;26.27;;
5961;SDS011;3007;50.770;0.250;2024-03-08T11:58:02;37.93;;;27.23;;
5961;SDS011;3007;50.770;0.250;2024-03-08T12:00:30;38.07;;;26.00;;
5961;SDS011;3007;50.770;0.250;2024-03-08T12:03:04;32.47;;;25.03;;
5961;SDS011;3007;50.770;0.250;2024-03-08T12:05:32;32.30;;;24.27;;
5961;SDS011;3007;50.770;0.250;2024-03-08T12:07:59;40.03;;;27.43;;
5961;SDS011;3007;50.770;0.250;2024-03-08T12:10:26;32.97;;;24.17;;
5961;SDS011;3007;50.770;0.250;2024-03-08T12:12:54;35.13;;;24.43;;
5961;SDS011;3007;50.770;0.250;2024-03-08T12:15:25;36.63;;;24.07;;
5961;SDS011;3007;50.770;0.250;2024-03-08T12:17:54;43.03;;;26.40;;
5961;SDS011;3007;50.770;0.250;2024-03-08T12:20:22;39.47;;;25.00;;
5961;SDS011;3007;50.770;0.250;2024-03-08T12:22:50;35.33;;;25.07;;
5961;SDS011;3007;50.770;0.250;2024-03-08T12:25:18;38.43;;;26.17;;
5961;SDS011;3007;50.770;0.250;2024-03-08T12:27:46;38.80;;;26.87;;
5961;SDS011;3007;50.770;0.250;2024-03-08T12:30:20;31.63;;;24.67;;
5961;SDS011;3007;50.770;0.250;2024-03-08T12:32:50;37.73;;;25.97;;
5961;SDS011;3007;50.770;0.250;2024-03-08T12:35:19;35.00;;;25.83;;
5961;SDS011;3007;50.770;0.250;2024-03-08T12:37:48;41.10;;;25.67;;
5961;SDS011;3007;50.770;0.250;2024-03-08T12:40:16;37.50;;;26.33;;
5961;SDS011;3007;50.770;0.250;2024-03-08T12:42:43;38.27;;;26.90;;
5961;SDS011;3007;50.770;0.250;2024-03-08T12:45:12;34.87;;;26.57;;
5961;SDS011;3007;50.770;0.250;2024-03-08T12:47:39;36.90;;;25.50;;
5961;SDS011;3007;50.770;0.250;2024-03-08T12:50:09;41.50;;;27.83;;
5961;SDS011;3007;50.770;0.250;2024-03-08T12:52:36;36.03;;;25.50;;
5961;SDS011;3007;50.770;0.250;2024-03-08T12:55:03;36.53;;;26.77;;
5961;SDS011;3007;50.770;0.250;2024-03-08T12:57:32;36.03;;;27.10;;
5961;SDS011;3007;50.770;0.250;2024-03-08T12:59:59;38.57;;;27.10;;
5961;SDS011;3007;50.770;0.250;2024-03-08T13:02:28;38.57;;;27.23;;
5961;SDS011;3007;50.770;0.250;2024-03-08T13:04:55;35.97;;;26.30;;
5961;SDS011;3007;50.770;0.250;2024-03-08T13:07:24;42.30;;;29.63;;
5961;SDS011;3007;50.770;0.250;2024-03-08T13:09:52;43.20;;;29.17;;
5961;SDS011;3007;50.770;0.250;2024-03-08T13:12:19;35.57;;;27.20;;
5961;SDS011;3007;50.770;0.250;2024-03-08T13:14:46;36.60;;;26.77;;
5961;SDS011;3007;50.770;0.250;2024-03-08T13:17:13;39.03;;;28.20;;
5961;SDS011;3007;50.770;0.250;2024-03-08T13:19:40;41.00;;;29.43;;
5961;SDS011;3007;50.770;0.250;2024-03-08T13:22:07;39.83;;;28.90;;
5961;SDS011;3007;50.770;0.250;2024-03-08T13:24:39;41.70;;;29.60;;
5961;SDS011;3007;50.770;0.250;2024-03-08T13:27:06;38.70;;;28.90;;
5961;SDS011;3007;50.770;0.250;2024-03-08T13:29:44;42.23;;;28.20;;
5961;SDS011;3007;50.770;0.250;2024-03-08T13:32:12;43.27;;;29.57;;
5961;SDS011;3007;50.770;0.250;2024-03-08T13:34:40;45.17;;;31.47;;
5961;SDS011;3007;50.770;0.250;2024-03-08T13:37:07;39.83;;;28.87;;
5961;SDS011;3007;50.770;0.250;2024-03-08T13:39:36;48.67;;;31.17;;
5961;SDS011;3007;50.770;0.250;2024-03-08T13:42:09;41.33;;;30.37;;
5961;SDS011;3007;50.770;0.250;2024-03-08T13:44:38;38.83;;;28.27;;
5961;SDS011;3007;50.770;0.250;2024-03-08T13:47:06;43.73;;;30.10;;
5961;SDS011;3007;50.770;0.250;2024-03-08T13:49:33;44.90;;;29.00;;
5961;SDS011;3007;50.770;0.250;2024-03-08T13:52:01;41.50;;;29.87;;
5961;SDS011;3007;50.770;0.250;2024-03-08T13:54:29;46.73;;;30.37;;
5961;SDS011;3007;50.770;0.250;2024-03-08T13:56:58;43.93;;;29.47;;
5961;SDS011;3007;50.770;0.250;2024-03-08T13:59:25;44.40;;;31.47;;
5961;SDS011;3007;50.770;0.250;2024-03-08T14:01:54;38.67;;;27.03;;
5961;SDS011;3007;50.770;0.250;2024-03-08T14:04:23;39.23;;;28.23;;
5961;SDS011;3007;50.770;0.250;2024-03-08T14:06:51;37.50;;;28.57;;
5961;SDS011;3007;50.770;0.250;2024-03-08T14:09:21;41.27;;;28.73;;
5961;SDS011;3007;50.770;0.250;2024-03-08T14:11:49;38.50;;;28.87;;
5961;SDS011;3007;50.770;0.250;2024-03-08T14:14:20;43.80;;;28.27;;
5961;SDS011;3007;50.770;0.250;2024-03-08T14:16:48;37.73;;;28.60;;
5961;SDS011;3007;50.770;0.250;2024-03-08T14:19:17;37.10;;;29.00;;
5961;SDS011;3007;50.770;0.250;2024-03-08T14:21:44;40.67;;;29.27;;
5961;SDS011;3007;50.770;0.250;2024-03-08T14:24:12;43.73;;;28.00;;
5961;SDS011;3007;50.770;0.250;2024-03-08T14:26:40;37.67;;;29.00;;
5961;SDS011;3007;50.770;0.250;2024-03-08T14:29:07;36.33;;;28.77;;
5961;SDS011;3007;50.770;0.250;2024-03-08T14:31:36;37.50;;;28.17;;
5961;SDS011;3007;50.770;0.250;2024-03-08T14:34:03;39.57;;;29.83;;
5961;SDS011;3007;50.770;0.250;2024-03-08T14:36:30;37.77;;;28.40;;
5961;SDS011;3007;50.770;0.250;2024-03-08T14:38:57;36.90;;;28.57;;
5961;SDS011;3007;50.770;0.250;2024-03-08T14:41:24;36.57;;;27.93;;
5961;SDS011;3007;50.770;0.250;2024-03-08T14:43:51;34.97;;;28.40;;
5961;SDS011;3007;50.770;0.250;2024-03-08T14:46:18;36.10;;;26.47;;
5961;SDS011;3007;50.770;0.250;2024-03-08T14:48:49;36.27;;;28.03;;
5961;SDS011;3007;50.770;0.250;2024-03-08T14:51:17;39.10;;;28.40;;
5961;SDS011;3007;50.770;0.250;2024-03-08T14:53:46;32.50;;;27.43;;
5961;SDS011;3007;50.770;0.250;2024-03-08T14:56:13;35.93;;;27.30;;
5961;SDS011;3007;50.770;0.250;2024-03-08T14:58:41;38.00;;;27.90;;